Time;durP1;ratioP1;P1;durP2;ratioP2;P2;SDS_P1;SDS_P2;PMS_P1;PMS_P2;Temp;Humidity;BMP_temperature;BMP_pressure;BME280_temperature;BME280_humidity;BME280_pressure;Samples;Min_cycle;Max_cycle;Signal;HPM_P1;HPM_P2
2021/03/26 00:06:18;;;;;;;;;;;8.80;66.20;;;;;;6170179;23;19916;-82
2021/03/26 00:09:23;;;;;;;;;;;;;;;;;;;;;
2021/03/26 00:17:50;;;;;;;;;;;8.60;67.20;;;;;;6164324;23;19909;-84
2021/03/26 00:20:16;;;;;;;;;;;8.50;67.40;;;;;;6191881;23;19948;-83
2021/03/26 00:22:43;;;;;;;;;;;8.50;67.60;;;;;;6190711;23;19963;-82
2021/03/26 00:25:14;;;;;;;;;;;8.40;67.70;;;;;;6191057;23;19908;-82
2021/03/26 00:27:49;;;;;;;;;;;;;;;;;;;;;
2021/03/26 00:30:28;;;;;;;;;;;;;;;;;;;;;
2021/03/26 00:38:55;;;;;;;;;;;8.30;68.90;;;;;;6165338;23;19983;-83
2021/03/26 00:44:49;;;;;;;;;;;8.30;69.40;;;;;;6136422;23;19909;-83
2021/03/26 00:50:34;;;;;;;;;;;8.20;69.80;;;;;;6166049;23;19904;-84
2021/03/26 01:06:06;;;;;;;;;;;8.10;71.00;;;;;;6169938;23;19984;-84
2021/03/26 01:08:31;;;;;;;;;;;8.10;71.40;;;;;;6184870;23;19913;-84
2021/03/26 01:11:03;;;;;;;;;;;8.10;71.70;;;;;;6191421;23;20282;-85
2021/03/26 01:13:29;;;;;;;;;;;8.10;72.00;;;;;;6192525;23;19908;-84
2021/03/26 01:15:54;;;;;;;;;;;8.00;72.10;;;;;;6193146;23;19915;-84
2021/03/26 01:18:23;;;;;;;;;;;8.00;72.40;;;;;;6193159;23;19905;-84
2021/03/26 01:20:49;;;;;;;;;;;8.00;72.60;;;;;;6191974;23;19908;-83
2021/03/26 01:23:14;;;;;;;;;;;7.90;72.80;;;;;;6193980;23;20331;-84
2021/03/26 01:25:41;;;;;;;;;;;7.90;73.00;;;;;;6193682;23;20323;-84
2021/03/26 01:28:07;;;;;;;;;;;7.90;73.20;;;;;;6192377;23;19911;-84
2021/03/26 01:30:33;;;;;;;;;;;7.90;73.40;;;;;;6193228;23;20341;-85
2021/03/26 01:32:59;;;;;;;;;;;7.90;73.60;;;;;;6192229;23;19923;-85
2021/03/26 01:35:28;;;;;;;;;;;7.80;74.50;;;;;;6192421;23;19905;-84
2021/03/26 01:37:53;;;;;;;;;;;7.80;73.90;;;;;;6165616;23;19920;-85
2021/03/26 01:40:21;;;;;;;;;;;7.80;74.10;;;;;;6193276;23;20315;-85
2021/03/26 01:42:46;;;;;;;;;;;7.80;74.30;;;;;;6193992;23;19905;-84
2021/03/26 01:45:15;;;;;;;;;;;7.70;74.30;;;;;;6166037;23;19904;-84
2021/03/26 01:47:41;;;;;;;;;;;7.70;74.60;;;;;;6192759;23;19935;-84
2021/03/26 01:50:08;;;;;;;;;;;7.70;74.80;;;;;;6193322;23;19904;-84
2021/03/26 01:52:33;;;;;;;;;;;7.60;74.90;;;;;;6192905;23;20248;-84
2021/03/26 01:55:01;;;;;;;;;;;7.60;75.10;;;;;;6191795;23;20027;-84
2021/03/26 01:57:26;;;;;;;;;;;7.60;75.40;;;;;;6192625;23;20317;-84
2021/03/26 01:59:52;;;;;;;;;;;7.60;75.70;;;;;;6193549;23;19919;-84
2021/03/26 02:02:22;;;;;;;;;;;7.50;75.70;;;;;;6192765;23;19939;-84
2021/03/26 02:04:48;;;;;;;;;;;7.50;75.90;;;;;;6193214;23;19908;-84
2021/03/26 02:07:15;;;;;;;;;;;7.50;76.10;;;;;;6165238;23;20365;-85
2021/03/26 02:09:41;;;;;;;;;;;7.50;76.30;;;;;;6192666;23;20270;-85
2021/03/26 02:12:23;;;;;;;;;;;7.40;76.40;;;;;;6192215;23;19904;-84
2021/03/26 02:14:51;;;;;;;;;;;7.50;76.70;;;;;;6192408;23;19924;-84
2021/03/26 02:17:19;;;;;;;;;;;7.40;76.80;;;;;;6192247;23;19908;-84
2021/03/26 02:19:48;;;;;;;;;;;7.40;77.10;;;;;;6193046;23;19904;-84
2021/03/26 02:22:15;;;;;;;;;;;7.30;77.20;;;;;;6192557;23;19942;-84
2021/03/26 02:24:41;;;;;;;;;;;7.30;77.30;;;;;;6165886;23;19905;-84
2021/03/26 02:27:09;;;;;;;;;;;7.30;77.60;;;;;;6191232;23;19911;-84
2021/03/26 02:29:36;;;;;;;;;;;7.30;77.90;;;;;;6166162;23;19911;-85
2021/03/26 02:32:04;;;;;;;;;;;7.30;78.10;;;;;;6165921;23;19959;-84
2021/03/26 02:34:30;;;;;;;;;;;7.20;78.20;;;;;;6165876;23;19904;-83
2021/03/26 02:37:01;;;;;;;;;;;7.20;78.40;;;;;;6191907;23;19908;-84
2021/03/26 02:39:32;;;;;;;;;;;7.20;78.60;;;;;;6192571;23;19919;-84
2021/03/26 02:42:00;;;;;;;;;;;7.20;78.80;;;;;;6191801;23;19927;-84
2021/03/26 02:44:55;;;;;;;;;;;7.20;79.10;;;;;;6191270;23;20007;-84
2021/03/26 02:47:21;;;;;;;;;;;7.10;79.30;;;;;;6158961;23;20382;-84
2021/03/26 02:49:49;;;;;;;;;;;7.10;79.60;;;;;;6192379;23;19904;-85
2021/03/26 02:52:33;;;;;;;;;;;7.10;79.80;;;;;;6193056;23;19912;-84
2021/03/26 02:55:09;;;;;;;;;;;7.10;80.00;;;;;;6192010;23;19904;-86
2021/03/26 02:57:38;;;;;;;;;;;7.10;80.30;;;;;;6165419;23;19959;-84
2021/03/26 03:00:16;;;;;;;;;;;7.00;80.40;;;;;;6165448;23;19915;-83
2021/03/26 03:02:42;;;;;;;;;;;7.00;80.70;;;;;;6190922;23;20187;-83
2021/03/26 03:05:08;;;;;;;;;;;7.00;80.90;;;;;;6164816;23;19913;-84
2021/03/26 03:07:37;;;;;;;;;;;7.00;81.10;;;;;;6191822;23;19927;-84
2021/03/26 03:10:19;;;;;;;;;;;7.00;81.30;;;;;;6193307;23;19910;-84
2021/03/26 03:12:45;;;;;;;;;;;7.00;81.50;;;;;;6192520;23;20252;-85
2021/03/26 03:15:17;;;;;;;;;;;6.90;81.70;;;;;;6191376;23;19935;-85
2021/03/26 03:17:47;;;;;;;;;;;6.90;81.90;;;;;;6165279;23;19908;-84
2021/03/26 03:20:19;;;;;;;;;;;6.90;82.20;;;;;;6190309;23;20315;-84
2021/03/26 03:23:03;;;;;;;;;;;6.90;82.40;;;;;;6192692;23;19928;-84
2021/03/26 03:25:29;;;;;;;;;;;6.80;82.50;;;;;;6192688;23;20220;-84
2021/03/26 03:27:54;;;;;;;;;;;6.80;82.80;;;;;;6165480;23;19928;-84
2021/03/26 03:30:27;;;;;;;;;;;6.80;83.10;;;;;;6165277;23;19910;-83
2021/03/26 03:32:55;;;;;;;;;;;6.70;83.30;;;;;;6192818;23;19912;-84
2021/03/26 03:35:20;;;;;;;;;;;6.70;83.70;;;;;;6164266;23;19911;-85
2021/03/26 03:37:53;;;;;;;;;;;6.70;83.90;;;;;;6191196;23;19932;-85
2021/03/26 03:40:26;;;;;;;;;;;6.60;84.10;;;;;;6192230;23;19904;-84
2021/03/26 03:42:56;;;;;;;;;;;6.60;84.30;;;;;;6192405;23;19911;-84
2021/03/26 03:45:26;;;;;;;;;;;6.60;84.60;;;;;;6192379;23;20235;-85
2021/03/26 03:48:05;;;;;;;;;;;6.60;84.90;;;;;;6191018;23;19908;-83
2021/03/26 03:50:39;;;;;;;;;;;6.60;85.10;;;;;;6166976;23;19908;-84
2021/03/26 03:53:05;;;;;;;;;;;6.60;85.50;;;;;;6192275;23;19916;-83
2021/03/26 03:55:39;;;;;;;;;;;6.60;85.70;;;;;;6192518;23;19904;-85
2021/03/26 03:58:05;;;;;;;;;;;6.60;85.80;;;;;;6192099;23;19905;-84
2021/03/26 04:00:35;;;;;;;;;;;6.50;86.00;;;;;;6193030;23;19927;-84
2021/03/26 04:03:23;;;;;;;;;;;6.50;86.20;;;;;;6192497;23;20002;-84
2021/03/26 04:06:06;;;;;;;;;;;6.50;86.50;;;;;;6192148;23;19904;-84
2021/03/26 04:08:42;;;;;;;;;;;6.50;86.80;;;;;;6190510;23;19927;-84
2021/03/26 04:11:26;;;;;;;;;;;6.50;87.00;;;;;;6192302;23;19912;-84
2021/03/26 04:14:12;;;;;;;;;;;6.50;87.30;;;;;;6192219;23;20335;-83
2021/03/26 04:16:39;;;;;;;;;;;6.50;87.70;;;;;;6140555;23;19909;-85
2021/03/26 04:19:17;;;;;;;;;;;6.50;88.00;;;;;;6190685;23;19995;-83
2021/03/26 04:21:44;;;;;;;;;;;6.40;88.20;;;;;;6191690;23;20386;-83
2021/03/26 04:24:12;;;;;;;;;;;6.40;88.50;;;;;;6164598;23;19904;-84
2021/03/26 04:26:46;;;;;;;;;;;6.40;88.80;;;;;;6192382;23;19908;-84
2021/03/26 04:29:18;;;;;;;;;;;6.40;89.20;;;;;;6192456;23;19912;-84
2021/03/26 04:31:56;;;;;;;;;;;6.40;89.50;;;;;;6191816;23;19904;-84
2021/03/26 04:34:22;;;;;;;;;;;6.40;89.80;;;;;;6165382;23;19983;-84
2021/03/26 04:36:50;;;;;;;;;;;6.40;90.00;;;;;;6191874;23;19939;-84
2021/03/26 04:39:20;;;;;;;;;;;6.30;90.10;;;;;;6191366;23;19946;-84
2021/03/26 04:41:53;;;;;;;;;;;6.40;90.30;;;;;;6191463;23;19905;-84
2021/03/26 04:44:40;;;;;;;;;;;6.30;90.40;;;;;;6190820;23;19915;-84
2021/03/26 04:47:14;;;;;;;;;;;6.30;90.50;;;;;;6192941;23;19904;-84
2021/03/26 04:49:43;;;;;;;;;;;6.30;90.70;;;;;;6193813;23;19932;-84
2021/03/26 04:52:15;;;;;;;;;;;6.30;90.80;;;;;;6193273;23;19912;-85
2021/03/26 04:54:54;;;;;;;;;;;6.30;91.00;;;;;;6193470;23;19904;-85
2021/03/26 04:57:44;;;;;;;;;;;6.30;91.20;;;;;;6167123;23;19915;-85
2021/03/26 05:00:16;;;;;;;;;;;6.30;91.40;;;;;;6192666;23;19901;-85
2021/03/26 05:02:45;;;;;;;;;;;6.30;91.50;;;;;;6167526;23;20271;-84
2021/03/26 05:05:11;;;;;;;;;;;6.30;91.60;;;;;;6165587;23;19983;-83
2021/03/26 05:07:47;;;;;;;;;;;6.30;91.90;;;;;;6165537;23;19904;-84
2021/03/26 05:10:22;;;;;;;;;;;6.20;92.10;;;;;;6194135;23;19905;-85
2021/03/26 05:12:50;;;;;;;;;;;6.20;92.40;;;;;;6194362;23;19908;-84
2021/03/26 05:15:26;;;;;;;;;;;6.20;92.60;;;;;;6194303;23;19914;-83
2021/03/26 05:17:57;;;;;;;;;;;6.20;92.80;;;;;;6192956;23;20251;-84
2021/03/26 05:20:39;;;;;;;;;;;6.20;93.00;;;;;;6195740;23;19951;-84
2021/03/26 05:23:14;;;;;;;;;;;6.20;93.20;;;;;;6167208;23;20250;-84
2021/03/26 05:25:44;;;;;;;;;;;6.30;93.40;;;;;;6194097;23;19904;-84
2021/03/26 05:28:15;;;;;;;;;;;6.30;93.50;;;;;;6193421;23;19904;-84
2021/03/26 05:30:42;;;;;;;;;;;6.30;93.60;;;;;;6167518;23;20039;-84
2021/03/26 05:33:07;;;;;;;;;;;6.40;93.80;;;;;;6192677;23;19912;-86
2021/03/26 05:35:46;;;;;;;;;;;6.50;94.00;;;;;;6193872;23;19904;-85
2021/03/26 05:38:14;;;;;;;;;;;6.60;94.10;;;;;;6166540;23;19961;-84
2021/03/26 05:40:50;;;;;;;;;;;6.60;94.20;;;;;;6193374;23;19934;-85
2021/03/26 05:43:35;;;;;;;;;;;6.70;94.30;;;;;;6193910;23;19904;-85
2021/03/26 05:46:00;;;;;;;;;;;6.80;94.40;;;;;;6166893;23;19904;-85
2021/03/26 05:48:47;;;;;;;;;;;7.00;94.50;;;;;;6165516;23;19927;-84
2021/03/26 05:51:31;;;;;;;;;;;7.30;94.50;;;;;;6192948;23;19904;-85
2021/03/26 05:54:05;;;;;;;;;;;7.90;94.30;;;;;;6193258;23;19904;-84
2021/03/26 05:56:33;;;;;;;;;;;8.50;93.80;;;;;;6167332;23;19915;-83
2021/03/26 05:59:01;;;;;;;;;;;9.10;93.60;;;;;;6192782;23;19905;-85
2021/03/26 06:01:39;;;;;;;;;;;10.00;92.60;;;;;;6167751;23;19940;-86
2021/03/26 06:04:23;;;;;;;;;;;11.70;91.30;;;;;;6193448;23;19911;-85
2021/03/26 06:07:13;;;;;;;;;;;13.50;87.90;;;;;;6193831;23;19912;-84
2021/03/26 06:09:39;;;;;;;;;;;14.90;83.30;;;;;;6193641;23;19971;-85
2021/03/26 06:12:19;;;;;;;;;;;16.20;79.20;;;;;;6168284;23;19904;-86
2021/03/26 06:14:51;;;;;;;;;;;17.20;76.10;;;;;;6194858;23;19904;-86
2021/03/26 06:17:16;;;;;;;;;;;18.30;73.30;;;;;;6193461;23;19955;-86
2021/03/26 06:20:01;;;;;;;;;;;19.30;70.80;;;;;;6194692;23;19912;-86
2021/03/26 06:22:58;;;;;;;;;;;20.30;68.50;;;;;;6193774;23;19905;-84
2021/03/26 06:25:28;;;;;;;;;;;21.40;65.90;;;;;;6193489;23;20326;-83
2021/03/26 06:27:53;;;;;;;;;;;22.70;63.40;;;;;;6168604;23;19908;-85
2021/03/26 06:30:30;;;;;;;;;;;23.70;61.40;;;;;;6194067;23;19991;-83
2021/03/26 07:04:35;;;;;;;;;;;35.30;46.90;;;;;;6156910;23;19951;-84
2021/03/26 07:07:42;;;;;;;;;;;36.10;46.30;;;;;;6194072;23;19947;-84
2021/03/26 07:10:25;;;;;;;;;;;36.60;45.50;;;;;;6111398;23;19905;-82
2021/03/26 07:12:53;;;;;;;;;;;37.30;44.90;;;;;;6080846;23;19928;-83
2021/03/26 07:15:28;;;;;;;;;;;37.90;44.10;;;;;;6146219;23;19944;-84
2021/03/26 07:21:00;;;;;;;;;;;39.10;43.10;;;;;;6179541;23;20223;-84
2021/03/26 07:23:48;;;;;;;;;;;39.50;42.30;;;;;;6190841;23;19911;-83
2021/03/26 07:26:35;;;;;;;;;;;39.80;41.80;;;;;;6135964;23;19904;-84
2021/03/26 07:29:28;;;;;;;;;;;40.30;41.50;;;;;;6195003;23;19911;-86
2021/03/26 07:31:49;;;;;;;;;;;40.60;41.00;;;;;;6196906;23;19905;-83
2021/03/26 07:34:28;;;;;;;;;;;;;;;;;;;;;
2021/03/26 07:37:02;;;;;;;;;;;41.40;40.60;;;;;;6196958;23;19948;-84
2021/03/26 07:39:39;;;;;;;;;;;41.60;39.90;;;;;;6195701;23;20361;-84
2021/03/26 07:42:20;;;;;;;;;;;;;;;;;;;;;
2021/03/26 07:45:08;;;;;;;;;;;42.00;39.50;;;;;;6196065;23;19939;-85
2021/03/26 07:47:44;;;;;;;;;;;42.00;39.00;;;;;;6192894;23;19912;-84
2021/03/26 07:50:35;;;;;;;;;;;42.00;38.80;;;;;;6191916;23;19915;-84
2021/03/26 08:02:53;;;;;;;;;;;;;;;;;;;;;
2021/03/26 08:09:24;;;;;;;;;;;;;;;;;;;;;
2021/03/26 08:15:33;;;;;;;;;;;;;;;;;;;;;
2021/03/26 12:20:01;;;;;;;;;;;;;;;;;;;;;
2021/03/26 12:39:11;;;;;;;;;;;;;;;;;;;;;
2021/03/26 13:19:05;;;;;;;;;;;24.80;34.40;;;;;;6199923;23;19928;-83
2021/03/26 13:21:39;;;;;;;;;;;25.20;34.00;;;;;;6155217;23;19911;-83
2021/03/26 13:24:31;;;;;;;;;;;24.60;33.90;;;;;;6198170;23;19904;-83
2021/03/26 13:27:15;;;;;;;;;;;24.40;34.30;;;;;;6199115;23;19905;-84
2021/03/26 13:29:46;;;;;;;;;;;25.00;34.10;;;;;;6201147;23;20319;-83
2021/03/26 13:32:41;;;;;;;;;;;25.10;33.80;;;;;;6203388;23;19918;-84
2021/03/26 13:35:44;;;;;;;;;;;24.80;33.90;;;;;;6202908;23;19908;-83
2021/03/26 13:38:31;;;;;;;;;;;24.30;34.00;;;;;;6195128;23;19905;-83
2021/03/26 13:41:10;;;;;;;;;;;;;;;;;;;;;
2021/03/26 13:43:43;;;;;;;;;;;25.20;34.00;;;;;;6203037;23;19900;-82
2021/03/26 13:46:37;;;;;;;;;;;25.80;33.80;;;;;;6202010;23;19901;-84
2021/03/26 13:49:18;;;;;;;;;;;26.20;33.30;;;;;;6179895;23;19927;-84
2021/03/26 13:51:49;;;;;;;;;;;26.20;32.80;;;;;;6202495;23;19904;-84
2021/03/26 13:57:37;;;;;;;;;;;;;;;;;;;;;
2021/03/26 14:06:33;;;;;;;;;;;26.00;33.20;;;;;;6184173;23;20246;-85
2021/03/26 14:09:31;;;;;;;;;;;;;;;;;;;;;
2021/03/26 14:12:20;;;;;;;;;;;25.30;33.30;;;;;;6200354;23;19904;-84
2021/03/26 14:18:37;;;;;;;;;;;;;;;;;;;;;
2021/03/26 14:21:28;;;;;;;;;;;;;;;;;;;;;
2021/03/26 14:39:06;;;;;;;;;;;;;;;;;;;;;
2021/03/26 14:42:11;;;;;;;;;;;;;;;;;;;;;
2021/03/26 14:48:21;;;;;;;;;;;24.90;34.50;;;;;;6182114;23;20392;-84
2021/03/26 14:54:17;;;;;;;;;;;;;;;;;;;;;
2021/03/26 14:57:12;;;;;;;;;;;;;;;;;;;;;
2021/03/26 15:03:30;;;;;;;;;;;;;;;;;;;;;
2021/03/26 15:12:33;;;;;;;;;;;22.20;35.40;;;;;;6165397;23;19908;-84
2021/03/26 15:18:32;;;;;;;;;;;21.40;35.80;;;;;;6185757;23;19916;-86
2021/03/26 15:21:09;;;;;;;;;;;;;;;;;;;;;
2021/03/26 15:23:51;;;;;;;;;;;20.90;36.10;;;;;;6201406;23;19908;-85
2021/03/26 15:26:42;;;;;;;;;;;20.70;36.10;;;;;;6200154;23;19904;-86
2021/03/26 15:29:37;;;;;;;;;;;20.70;36.20;;;;;;6132820;23;19912;-84
2021/03/26 15:51:16;;;;;;;;;;;;;;;;;;;;;
2021/03/26 15:59:51;;;;;;;;;;;20.00;37.10;;;;;;6184109;23;19956;-84
2021/03/26 16:12:14;;;;;;;;;;;19.40;37.40;;;;;;6184179;23;19911;-83
2021/03/26 16:15:13;;;;;;;;;;;19.20;37.60;;;;;;6200332;23;19904;-84
2021/03/26 16:21:01;;;;;;;;;;;18.80;38.00;;;;;;6194031;23;19904;-85
2021/03/26 16:27:14;;;;;;;;;;;18.90;38.30;;;;;;6150911;23;19905;-83
2021/03/26 16:30:07;;;;;;;;;;;;;;;;;;;;;
2021/03/26 16:33:10;;;;;;;;;;;19.00;38.40;;;;;;6199834;23;19956;-84
2021/03/26 16:41:57;;;;;;;;;;;18.90;38.50;;;;;;6184638;23;19905;-84
2021/03/26 16:44:32;;;;;;;;;;;18.80;38.50;;;;;;6196826;23;19932;-83
2021/03/26 16:47:00;;;;;;;;;;;18.70;38.50;;;;;;6193939;23;19908;-84
2021/03/26 16:49:55;;;;;;;;;;;;;;;;;;;;;
2021/03/26 16:52:47;;;;;;;;;;;18.50;38.70;;;;;;6206689;23;19905;-83
2021/03/26 16:55:25;;;;;;;;;;;18.30;38.70;;;;;;6198570;23;19908;-86
2021/03/26 16:58:30;;;;;;;;;;;18.10;38.70;;;;;;6195308;23;19908;-84
2021/03/26 17:01:10;;;;;;;;;;;18.00;38.90;;;;;;6199648;23;19904;-83
2021/03/26 17:04:11;;;;;;;;;;;17.80;39.00;;;;;;6196422;23;19904;-84
2021/03/26 17:13:41;;;;;;;;;;;;;;;;;;;;;
2021/03/26 17:16:47;;;;;;;;;;;;;;;;;;;;;
2021/03/26 17:22:34;;;;;;;;;;;16.90;39.70;;;;;;6185207;23;19900;-85
2021/03/26 17:31:02;;;;;;;;;;;16.70;39.80;;;;;;6188626;23;19948;-85
2021/03/26 17:33:46;;;;;;;;;;;16.50;39.80;;;;;;6199428;23;19904;-83
2021/03/26 17:36:23;;;;;;;;;;;16.40;39.90;;;;;;6198123;23;19904;-85
2021/03/26 17:38:51;;;;;;;;;;;16.20;39.90;;;;;;6197966;23;20242;-84
2021/03/26 17:41:46;;;;;;;;;;;;;;;;;;;;;
2021/03/26 17:44:17;;;;;;;;;;;16.00;40.30;;;;;;6196874;23;19924;-84
2021/03/26 17:47:20;;;;;;;;;;;15.90;40.30;;;;;;6197596;23;19962;-84
2021/03/26 17:49:53;;;;;;;;;;;15.80;40.40;;;;;;6136063;23;19905;-84
2021/03/26 18:04:38;;;;;;;;;;;;;;;;;;;;;
2021/03/26 18:19:27;;;;;;;;;;;15.00;41.00;;;;;;6164456;23;19920;-84
2021/03/26 18:21:59;;;;;;;;;;;14.90;41.10;;;;;;6149918;23;19956;-83
2021/03/26 18:24:33;;;;;;;;;;;14.80;41.20;;;;;;6205884;23;19905;-83
2021/03/26 18:27:25;;;;;;;;;;;14.70;41.10;;;;;;6206634;23;19904;-83
2021/03/26 18:29:59;;;;;;;;;;;14.70;41.20;;;;;;6206551;23;19905;-83
2021/03/26 18:32:24;;;;;;;;;;;14.60;41.20;;;;;;6204817;23;19892;-84
2021/03/26 18:34:53;;;;;;;;;;;14.60;41.20;;;;;;6203498;23;19908;-84
2021/03/26 18:37:24;;;;;;;;;;;14.50;41.30;;;;;;6188484;23;20269;-84
2021/03/26 18:39:57;;;;;;;;;;;14.50;41.30;;;;;;6188885;23;19904;-84
2021/03/26 18:42:25;;;;;;;;;;;14.50;41.40;;;;;;6189363;23;19904;-85
2021/03/26 18:45:09;;;;;;;;;;;14.40;41.40;;;;;;6189674;23;19930;-84
2021/03/26 18:47:54;;;;;;;;;;;14.40;41.50;;;;;;6190652;23;20286;-84
2021/03/26 18:50:22;;;;;;;;;;;14.30;41.50;;;;;;6188453;23;19904;-84
2021/03/26 18:53:05;;;;;;;;;;;14.30;41.60;;;;;;6190845;23;19927;-84
2021/03/26 18:55:36;;;;;;;;;;;14.30;41.70;;;;;;6190022;23;19904;-84
2021/03/26 18:58:08;;;;;;;;;;;14.30;41.70;;;;;;6187830;23;19909;-83
2021/03/26 19:00:39;;;;;;;;;;;14.30;41.80;;;;;;6188712;23;19915;-82
2021/03/26 19:03:23;;;;;;;;;;;14.30;41.90;;;;;;6189130;23;20095;-83
2021/03/26 19:05:54;;;;;;;;;;;14.20;41.90;;;;;;6191650;23;19997;-85
2021/03/26 19:08:26;;;;;;;;;;;14.20;42.00;;;;;;6191136;23;19932;-83
2021/03/26 19:11:10;;;;;;;;;;;14.20;42.00;;;;;;6194428;23;19927;-84
2021/03/26 19:13:44;;;;;;;;;;;14.20;42.10;;;;;;6195249;23;19927;-85
2021/03/26 19:16:13;;;;;;;;;;;14.20;42.10;;;;;;6189907;23;19915;-85
2021/03/26 19:30:11;;;;;;;;;;;;;;;;;;;;;
2021/03/26 19:32:39;;;;;;;;;;;14.10;42.30;;;;;;6218446;23;20008;-85
2021/03/26 19:35:13;;;;;;;;;;;14.10;42.30;;;;;;6225622;23;19904;-85
2021/03/26 19:37:43;;;;;;;;;;;14.10;42.30;;;;;;6221571;23;19908;-83
2021/03/26 19:40:16;;;;;;;;;;;14.00;42.30;;;;;;6197556;23;19928;-84
2021/03/26 19:42:45;;;;;;;;;;;13.90;42.40;;;;;;6201281;23;19904;-84
2021/03/26 19:45:32;;;;;;;;;;;13.80;42.40;;;;;;6226422;23;19987;-84
2021/03/26 19:48:12;;;;;;;;;;;13.80;42.50;;;;;;6223257;23;19974;-84
2021/03/26 19:50:56;;;;;;;;;;;13.70;42.60;;;;;;6223616;23;19987;-83
2021/03/26 19:53:22;;;;;;;;;;;13.50;42.70;;;;;;6222682;23;19904;-83
2021/03/26 19:56:06;;;;;;;;;;;13.50;42.90;;;;;;6222808;23;19954;-84
2021/03/26 19:58:52;;;;;;;;;;;13.40;43.10;;;;;;6198407;23;19915;-84
2021/03/26 20:01:20;;;;;;;;;;;13.30;43.10;;;;;;6136964;23;19911;-84
2021/03/26 20:03:51;;;;;;;;;;;13.20;43.10;;;;;;6196754;23;19951;-84
2021/03/26 20:06:23;;;;;;;;;;;13.10;43.20;;;;;;6221072;23;19966;-83
2021/03/26 20:08:51;;;;;;;;;;;13.00;43.20;;;;;;6220815;23;20341;-84
2021/03/26 20:11:16;;;;;;;;;;;12.90;43.30;;;;;;6220517;23;19932;-84
2021/03/26 20:13:48;;;;;;;;;;;12.80;43.30;;;;;;6195749;23;19911;-84
2021/03/26 20:16:25;;;;;;;;;;;12.80;43.40;;;;;;6220820;23;20249;-84
2021/03/26 20:18:54;;;;;;;;;;;12.70;43.40;;;;;;6196950;23;19904;-84
2021/03/26 20:21:44;;;;;;;;;;;12.70;43.50;;;;;;6198217;23;19904;-83
2021/03/26 20:24:27;;;;;;;;;;;12.60;43.50;;;;;;6196572;23;19912;-84
2021/03/26 20:26:59;;;;;;;;;;;12.60;43.70;;;;;;6222460;23;19908;-83
2021/03/26 20:29:37;;;;;;;;;;;12.50;43.70;;;;;;6196706;23;19911;-83
2021/03/26 20:32:03;;;;;;;;;;;12.50;43.70;;;;;;6223316;23;19904;-83
2021/03/26 20:34:48;;;;;;;;;;;12.40;43.80;;;;;;6222276;23;19908;-83
2021/03/26 20:37:17;;;;;;;;;;;12.40;43.90;;;;;;6197414;23;19908;-83
2021/03/26 20:39:57;;;;;;;;;;;12.30;43.90;;;;;;6223966;23;19904;-83
2021/03/26 20:42:34;;;;;;;;;;;12.30;43.90;;;;;;6222513;23;19911;-84
2021/03/26 20:45:18;;;;;;;;;;;12.30;44.00;;;;;;6196291;23;19918;-83
2021/03/26 20:47:46;;;;;;;;;;;12.30;44.10;;;;;;6197711;23;19908;-83
2021/03/26 20:50:25;;;;;;;;;;;12.30;44.10;;;;;;6224132;23;19904;-84
2021/03/26 20:53:09;;;;;;;;;;;12.20;44.10;;;;;;6222369;23;19983;-84
2021/03/26 20:55:38;;;;;;;;;;;12.20;44.10;;;;;;6223436;23;19910;-84
2021/03/26 20:58:13;;;;;;;;;;;12.20;44.20;;;;;;6224172;23;19978;-83
2021/03/26 21:00:50;;;;;;;;;;;12.10;44.30;;;;;;6223436;23;19904;-83
2021/03/26 21:03:21;;;;;;;;;;;12.10;44.40;;;;;;6224075;23;20342;-83
2021/03/26 21:05:58;;;;;;;;;;;12.10;44.50;;;;;;6225294;23;19908;-84
2021/03/26 21:08:34;;;;;;;;;;;12.00;44.50;;;;;;6197188;23;19908;-83
2021/03/26 21:11:08;;;;;;;;;;;12.00;44.60;;;;;;6223210;23;19904;-83
2021/03/26 21:13:41;;;;;;;;;;;11.90;44.70;;;;;;6222769;23;19908;-83
2021/03/26 21:16:10;;;;;;;;;;;11.90;44.80;;;;;;6221941;23;19904;-83
2021/03/26 21:18:35;;;;;;;;;;;11.80;44.90;;;;;;6222186;23;19917;-84
2021/03/26 21:21:02;;;;;;;;;;;11.70;45.00;;;;;;6196091;23;19908;-84
2021/03/26 21:23:27;;;;;;;;;;;11.70;45.10;;;;;;6223913;23;20547;-83
2021/03/26 21:25:57;;;;;;;;;;;11.70;45.20;;;;;;6224662;23;19904;-83
2021/03/26 21:28:22;;;;;;;;;;;11.70;45.30;;;;;;6196756;23;19912;-83
2021/03/26 21:30:57;;;;;;;;;;;11.70;45.40;;;;;;6221995;23;19914;-84
2021/03/26 21:33:28;;;;;;;;;;;11.60;45.50;;;;;;6223902;23;19911;-84
2021/03/26 21:35:59;;;;;;;;;;;11.60;45.80;;;;;;6225131;23;19934;-83
2021/03/26 21:38:27;;;;;;;;;;;11.60;46.00;;;;;;6222617;23;19931;-83
2021/03/26 21:41:15;;;;;;;;;;;11.60;46.20;;;;;;6196749;23;19910;-84
2021/03/26 21:43:41;;;;;;;;;;;11.60;46.30;;;;;;6227904;23;19908;-83
2021/03/26 21:46:06;;;;;;;;;;;11.60;46.40;;;;;;6197227;23;19904;-84
2021/03/26 21:48:33;;;;;;;;;;;11.70;46.50;;;;;;6222641;23;19904;-83
2021/03/26 21:50:59;;;;;;;;;;;11.70;46.60;;;;;;6221457;23;20294;-83
2021/03/26 21:53:28;;;;;;;;;;;11.70;46.70;;;;;;6196579;23;19904;-83
2021/03/26 21:56:05;;;;;;;;;;;11.60;46.70;;;;;;6223610;23;19908;-83
2021/03/26 21:58:37;;;;;;;;;;;11.70;46.90;;;;;;6224039;23;19904;-83
2021/03/26 22:01:09;;;;;;;;;;;11.60;46.90;;;;;;6223836;23;20338;-84
2021/03/26 22:03:35;;;;;;;;;;;11.60;47.00;;;;;;6197250;23;19958;-84
2021/03/26 22:06:10;;;;;;;;;;;11.60;47.10;;;;;;6222079;23;19908;-84
2021/03/26 22:08:43;;;;;;;;;;;11.60;47.20;;;;;;6221341;23;19916;-84
2021/03/26 22:11:13;;;;;;;;;;;11.60;47.30;;;;;;6222240;23;19911;-84
2021/03/26 22:13:50;;;;;;;;;;;11.60;47.40;;;;;;6223463;23;19927;-84
2021/03/26 22:16:32;;;;;;;;;;;11.60;47.50;;;;;;6201663;23;19924;-83
2021/03/26 22:19:17;;;;;;;;;;;11.60;47.50;;;;;;6224713;23;19904;-84
2021/03/26 22:21:44;;;;;;;;;;;11.60;47.60;;;;;;6228291;23;19904;-84
2021/03/26 22:24:09;;;;;;;;;;;11.60;47.60;;;;;;6228530;23;19975;-83
2021/03/26 22:26:35;;;;;;;;;;;11.60;47.60;;;;;;6231248;23;20118;-84
2021/03/26 22:29:25;;;;;;;;;;;11.60;47.60;;;;;;6227744;23;19904;-82
2021/03/26 22:32:14;;;;;;;;;;;11.70;47.90;;;;;;6227289;23;19904;-82
2021/03/26 22:34:42;;;;;;;;;;;11.60;47.80;;;;;;6225417;23;19911;-82
2021/03/26 22:37:12;;;;;;;;;;;11.60;47.80;;;;;;6226226;23;19904;-82
2021/03/26 22:39:40;;;;;;;;;;;11.70;48.00;;;;;;6225294;23;19913;-82
2021/03/26 22:42:06;;;;;;;;;;;11.70;48.10;;;;;;6226332;23;19983;-82
2021/03/26 22:44:35;;;;;;;;;;;11.70;48.10;;;;;;6229468;23;19904;-82
2021/03/26 22:47:04;;;;;;;;;;;11.80;48.50;;;;;;6231056;23;19936;-83
2021/03/26 22:49:55;;;;;;;;;;;11.90;48.80;;;;;;6233397;23;19911;-82
2021/03/26 22:52:36;;;;;;;;;;;11.90;49.00;;;;;;6228081;23;19915;-82
2021/03/26 22:55:21;;;;;;;;;;;12.00;49.70;;;;;;6227757;23;19904;-83
2021/03/26 22:57:51;;;;;;;;;;;12.00;50.50;;;;;;6226552;23;20930;-82
2021/03/26 23:00:22;;;;;;;;;;;11.80;52.00;;;;;;6202274;23;19968;-83
2021/03/26 23:02:51;;;;;;;;;;;11.50;53.50;;;;;;6203015;23;20035;-83
2021/03/26 23:05:31;;;;;;;;;;;11.30;54.80;;;;;;6230635;23;19955;-84
2021/03/26 23:08:09;;;;;;;;;;;11.10;56.10;;;;;;6228515;23;19908;-82
2021/03/26 23:10:37;;;;;;;;;;;10.80;57.40;;;;;;6230416;23;19904;-81
2021/03/26 23:13:11;;;;;;;;;;;10.70;58.50;;;;;;6231516;23;19923;-82
2021/03/26 23:15:52;;;;;;;;;;;10.50;58.80;;;;;;6231620;23;19908;-81
2021/03/26 23:18:37;;;;;;;;;;;10.50;59.20;;;;;;6231743;23;20334;-82
2021/03/26 23:21:08;;;;;;;;;;;10.40;59.60;;;;;;6231052;23;19904;-81
2021/03/26 23:23:42;;;;;;;;;;;10.30;60.20;;;;;;6205737;23;20373;-81
2021/03/26 23:26:14;;;;;;;;;;;10.20;60.80;;;;;;6231337;23;20365;-84
2021/03/26 23:28:42;;;;;;;;;;;10.10;61.90;;;;;;6232529;23;19908;-82
2021/03/26 23:31:26;;;;;;;;;;;10.10;62.20;;;;;;6205158;23;19928;-82
2021/03/26 23:33:53;;;;;;;;;;;10.10;62.80;;;;;;6230386;23;20389;-81
2021/03/26 23:36:23;;;;;;;;;;;10.00;63.30;;;;;;6204051;23;19911;-81
2021/03/26 23:39:18;;;;;;;;;;;10.00;64.20;;;;;;6229019;23;19935;-81
2021/03/26 23:41:48;;;;;;;;;;;9.90;66.10;;;;;;6177449;23;19986;-81
2021/03/26 23:44:15;;;;;;;;;;;9.90;67.20;;;;;;6203114;23;19904;-81
2021/03/26 23:46:48;;;;;;;;;;;9.80;67.70;;;;;;6203256;23;20205;-83
2021/03/26 23:49:14;;;;;;;;;;;9.80;68.40;;;;;;6228960;23;19904;-83
2021/03/26 23:51:45;;;;;;;;;;;9.70;69.40;;;;;;6229924;23;19931;-83
2021/03/26 23:54:16;;;;;;;;;;;9.70;69.90;;;;;;6202928;23;19910;-83
2021/03/26 23:56:46;;;;;;;;;;;9.60;70.20;;;;;;6231702;23;19928;-83
2021/03/26 23:59:15;;;;;;;;;;;9.60;70.70;;;;;;6232026;23;19928;-83
